sensor_id;sensor_type;location;lat;lon;timestamp;P1;durP1;ratioP1;P2;durP2;ratioP2
836;SDS011;400;53.550;9.932;2023-02-13T00:01:02;19.55;;;15.75;;
836;SDS011;400;53.550;9.932;2023-02-13T00:03:29;21.92;;;15.65;;
836;SDS011;400;53.550;9.932;2023-02-13T00:05:56;17.92;;;16.08;;
836;SDS011;400;53.550;9.932;2023-02-13T00:08:23;17.45;;;14.10;;
836;SDS011;400;53.550;9.932;2023-02-13T00:10:50;17.10;;;15.15;;
836;SDS011;400;53.550;9.932;2023-02-13T00:13:18;16.38;;;14.00;;
836;SDS011;400;53.550;9.932;2023-02-13T00:15:53;18.90;;;16.90;;
836;SDS011;400;53.550;9.932;2023-02-13T00:18:20;18.42;;;16.50;;
836;SDS011;400;53.550;9.932;2023-02-13T00:20:55;17.02;;;14.57;;
836;SDS011;400;53.550;9.932;2023-02-13T00:23:22;17.63;;;14.90;;
836;SDS011;400;53.550;9.932;2023-02-13T00:25:50;19.15;;;15.90;;
836;SDS011;400;53.550;9.932;2023-02-13T00:28:16;16.10;;;14.40;;
836;SDS011;400;53.550;9.932;2023-02-13T00:30:45;18.25;;;15.98;;
836;SDS011;400;53.550;9.932;2023-02-13T00:33:13;16.92;;;14.85;;
836;SDS011;400;53.550;9.932;2023-02-13T00:35:40;17.02;;;14.95;;
836;SDS011;400;53.550;9.932;2023-02-13T00:38:07;17.98;;;15.52;;
836;SDS011;400;53.550;9.932;2023-02-13T00:40:34;18.13;;;14.57;;
836;SDS011;400;53.550;9.932;2023-02-13T00:43:00;18.63;;;15.00;;
836;SDS011;400;53.550;9.932;2023-02-13T00:45:29;17.88;;;15.15;;
836;SDS011;400;53.550;9.932;2023-02-13T00:47:56;17.13;;;15.07;;
836;SDS011;400;53.550;9.932;2023-02-13T00:50:25;19.48;;;16.60;;
836;SDS011;400;53.550;9.932;2023-02-13T00:52:52;21.10;;;16.48;;
836;SDS011;400;53.550;9.932;2023-02-13T00:55:19;18.50;;;16.27;;
836;SDS011;400;53.550;9.932;2023-02-13T00:57:46;19.50;;;15.02;;
836;SDS011;400;53.550;9.932;2023-02-13T01:00:16;17.65;;;15.55;;
836;SDS011;400;53.550;9.932;2023-02-13T01:02:45;17.67;;;14.88;;
836;SDS011;400;53.550;9.932;2023-02-13T01:05:12;17.52;;;14.73;;
836;SDS011;400;53.550;9.932;2023-02-13T01:07:39;21.33;;;16.00;;
836;SDS011;400;53.550;9.932;2023-02-13T01:10:06;17.60;;;14.63;;
836;SDS011;400;53.550;9.932;2023-02-13T01:12:33;19.65;;;14.13;;
836;SDS011;400;53.550;9.932;2023-02-13T01:15:00;17.15;;;15.13;;
836;SDS011;400;53.550;9.932;2023-02-13T01:17:27;18.23;;;14.63;;
836;SDS011;400;53.550;9.932;2023-02-13T01:20:00;15.98;;;14.32;;
836;SDS011;400;53.550;9.932;2023-02-13T01:22:30;20.42;;;15.73;;
836;SDS011;400;53.550;9.932;2023-02-13T01:24:57;19.13;;;16.85;;
836;SDS011;400;53.550;9.932;2023-02-13T01:27:24;18.75;;;15.35;;
836;SDS011;400;53.550;9.932;2023-02-13T01:29:53;17.42;;;15.10;;
836;SDS011;400;53.550;9.932;2023-02-13T01:32:20;18.70;;;14.23;;
836;SDS011;400;53.550;9.932;2023-02-13T01:34:52;19.05;;;14.95;;
836;SDS011;400;53.550;9.932;2023-02-13T01:37:23;16.20;;;14.50;;
836;SDS011;400;53.550;9.932;2023-02-13T01:39:50;19.75;;;14.80;;
836;SDS011;400;53.550;9.932;2023-02-13T01:42:31;16.30;;;14.60;;
836;SDS011;400;53.550;9.932;2023-02-13T01:45:00;17.77;;;14.25;;
836;SDS011;400;53.550;9.932;2023-02-13T01:47:34;16.25;;;14.40;;
836;SDS011;400;53.550;9.932;2023-02-13T01:50:08;16.42;;;14.32;;
836;SDS011;400;53.550;9.932;2023-02-13T01:52:41;20.23;;;14.65;;
836;SDS011;400;53.550;9.932;2023-02-13T01:55:14;18.67;;;15.13;;
836;SDS011;400;53.550;9.932;2023-02-13T01:57:45;17.48;;;14.45;;
836;SDS011;400;53.550;9.932;2023-02-13T02:00:16;16.35;;;13.85;;
836;SDS011;400;53.550;9.932;2023-02-13T02:02:45;16.30;;;14.15;;
836;SDS011;400;53.550;9.932;2023-02-13T02:05:15;15.55;;;13.85;;
836;SDS011;400;53.550;9.932;2023-02-13T02:07:45;16.65;;;13.93;;
836;SDS011;400;53.550;9.932;2023-02-13T02:10:15;14.93;;;12.85;;
836;SDS011;400;53.550;9.932;2023-02-13T02:12:46;17.05;;;14.77;;
836;SDS011;400;53.550;9.932;2023-02-13T02:15:17;17.13;;;14.55;;
836;SDS011;400;53.550;9.932;2023-02-13T02:17:45;16.95;;;14.05;;
836;SDS011;400;53.550;9.932;2023-02-13T02:20:15;14.45;;;12.77;;
836;SDS011;400;53.550;9.932;2023-02-13T02:23:23;15.02;;;13.50;;
836;SDS011;400;53.550;9.932;2023-02-13T02:29:31;16.00;;;13.80;;
836;SDS011;400;53.550;9.932;2023-02-13T02:35:12;12.98;;;11.57;;
836;SDS011;400;53.550;9.932;2023-02-13T02:37:51;17.15;;;13.57;;
836;SDS011;400;53.550;9.932;2023-02-13T02:40:33;15.10;;;13.27;;
836;SDS011;400;53.550;9.932;2023-02-13T02:43:22;12.68;;;11.40;;
836;SDS011;400;53.550;9.932;2023-02-13T02:46:07;13.15;;;11.82;;
836;SDS011;400;53.550;9.932;2023-02-13T02:48:44;15.20;;;11.35;;
836;SDS011;400;53.550;9.932;2023-02-13T02:51:37;11.25;;;10.05;;
836;SDS011;400;53.550;9.932;2023-02-13T02:54:12;15.32;;;11.95;;
836;SDS011;400;53.550;9.932;2023-02-13T02:57:02;13.50;;;11.25;;
836;SDS011;400;53.550;9.932;2023-02-13T02:59:35;12.90;;;11.60;;
836;SDS011;400;53.550;9.932;2023-02-13T03:02:22;12.15;;;10.82;;
836;SDS011;400;53.550;9.932;2023-02-13T03:05:16;10.98;;;9.88;;
836;SDS011;400;53.550;9.932;2023-02-13T03:08:03;11.68;;;10.48;;
836;SDS011;400;53.550;9.932;2023-02-13T03:10:32;11.50;;;10.30;;
836;SDS011;400;53.550;9.932;2023-02-13T03:13:28;13.73;;;10.20;;
836;SDS011;400;53.550;9.932;2023-02-13T03:16:03;11.93;;;10.68;;
836;SDS011;400;53.550;9.932;2023-02-13T03:18:49;12.15;;;10.20;;
836;SDS011;400;53.550;9.932;2023-02-13T03:21:41;12.60;;;11.30;;
836;SDS011;400;53.550;9.932;2023-02-13T03:24:32;12.25;;;9.52;;
836;SDS011;400;53.550;9.932;2023-02-13T03:27:07;11.52;;;9.45;;
836;SDS011;400;53.550;9.932;2023-02-13T03:29:40;12.10;;;10.90;;
836;SDS011;400;53.550;9.932;2023-02-13T03:32:31;13.93;;;10.90;;
836;SDS011;400;53.550;9.932;2023-02-13T03:35:11;10.93;;;9.52;;
836;SDS011;400;53.550;9.932;2023-02-13T03:38:07;11.27;;;10.07;;
836;SDS011;400;53.550;9.932;2023-02-13T03:40:41;13.32;;;10.82;;
836;SDS011;400;53.550;9.932;2023-02-13T03:43:26;13.10;;;10.65;;
836;SDS011;400;53.550;9.932;2023-02-13T03:45:59;13.52;;;10.15;;
836;SDS011;400;53.550;9.932;2023-02-13T03:48:35;13.60;;;10.35;;
836;SDS011;400;53.550;9.932;2023-02-13T03:51:24;13.52;;;10.60;;
836;SDS011;400;53.550;9.932;2023-02-13T03:53:57;11.30;;;10.10;;
836;SDS011;400;53.550;9.932;2023-02-13T03:56:26;11.50;;;9.80;;
836;SDS011;400;53.550;9.932;2023-02-13T03:59:14;11.45;;;9.65;;
836;SDS011;400;53.550;9.932;2023-02-13T04:01:47;12.95;;;11.63;;
836;SDS011;400;53.550;9.932;2023-02-13T04:04:28;12.10;;;10.85;;
836;SDS011;400;53.550;9.932;2023-02-13T04:07:06;12.25;;;10.45;;
836;SDS011;400;53.550;9.932;2023-02-13T04:09:55;14.63;;;12.45;;
836;SDS011;400;53.550;9.932;2023-02-13T04:12:26;13.70;;;12.27;;
836;SDS011;400;53.550;9.932;2023-02-13T04:15:03;11.02;;;9.80;;
836;SDS011;400;53.550;9.932;2023-02-13T04:17:35;14.88;;;11.35;;
836;SDS011;400;53.550;9.932;2023-02-13T04:20:05;11.90;;;10.70;;
836;SDS011;400;53.550;9.932;2023-02-13T04:22:32;11.55;;;10.35;;
836;SDS011;400;53.550;9.932;2023-02-13T04:25:03;11.57;;;10.38;;
836;SDS011;400;53.550;9.932;2023-02-13T04:27:30;11.60;;;9.95;;
836;SDS011;400;53.550;9.932;2023-02-13T04:29:57;12.73;;;11.38;;
836;SDS011;400;53.550;9.932;2023-02-13T04:32:24;12.02;;;10.23;;
836;SDS011;400;53.550;9.932;2023-02-13T04:34:51;12.00;;;10.43;;
836;SDS011;400;53.550;9.932;2023-02-13T04:37:18;11.13;;;9.90;;
836;SDS011;400;53.550;9.932;2023-02-13T04:39:46;12.05;;;10.38;;
836;SDS011;400;53.550;9.932;2023-02-13T04:42:15;12.40;;;10.13;;
836;SDS011;400;53.550;9.932;2023-02-13T04:44:42;12.77;;;11.45;;
836;SDS011;400;53.550;9.932;2023-02-13T04:47:08;12.95;;;10.77;;
836;SDS011;400;53.550;9.932;2023-02-13T04:49:35;12.82;;;11.63;;
836;SDS011;400;53.550;9.932;2023-02-13T04:52:03;11.50;;;10.35;;
836;SDS011;400;53.550;9.932;2023-02-13T04:54:30;13.50;;;10.63;;
836;SDS011;400;53.550;9.932;2023-02-13T04:56:57;12.02;;;10.73;;
836;SDS011;400;53.550;9.932;2023-02-13T04:59:25;13.55;;;11.27;;
836;SDS011;400;53.550;9.932;2023-02-13T05:01:53;12.98;;;10.25;;
836;SDS011;400;53.550;9.932;2023-02-13T05:04:19;11.82;;;10.35;;
836;SDS011;400;53.550;9.932;2023-02-13T05:06:46;13.70;;;9.60;;
836;SDS011;400;53.550;9.932;2023-02-13T05:09:13;11.93;;;10.50;;
836;SDS011;400;53.550;9.932;2023-02-13T05:11:40;12.88;;;11.43;;
836;SDS011;400;53.550;9.932;2023-02-13T05:14:08;12.40;;;11.15;;
836;SDS011;400;53.550;9.932;2023-02-13T05:16:36;11.82;;;10.63;;
836;SDS011;400;53.550;9.932;2023-02-13T05:19:03;12.90;;;10.65;;
836;SDS011;400;53.550;9.932;2023-02-13T05:21:30;13.07;;;11.68;;
836;SDS011;400;53.550;9.932;2023-02-13T05:24:17;12.77;;;10.63;;
836;SDS011;400;53.550;9.932;2023-02-13T05:26:44;11.63;;;10.40;;
836;SDS011;400;53.550;9.932;2023-02-13T05:29:11;14.20;;;11.27;;
836;SDS011;400;53.550;9.932;2023-02-13T05:31:44;12.30;;;11.02;;
836;SDS011;400;53.550;9.932;2023-02-13T05:34:17;11.52;;;9.85;;
836;SDS011;400;53.550;9.932;2023-02-13T05:36:44;11.52;;;10.32;;
836;SDS011;400;53.550;9.932;2023-02-13T05:39:11;11.23;;;10.13;;
836;SDS011;400;53.550;9.932;2023-02-13T05:41:39;10.90;;;9.77;;
836;SDS011;400;53.550;9.932;2023-02-13T05:44:06;11.35;;;10.25;;
836;SDS011;400;53.550;9.932;2023-02-13T05:46:35;12.82;;;10.65;;
836;SDS011;400;53.550;9.932;2023-02-13T05:49:07;12.35;;;10.27;;
836;SDS011;400;53.550;9.932;2023-02-13T05:51:35;11.48;;;9.95;;
836;SDS011;400;53.550;9.932;2023-02-13T05:54:02;14.60;;;11.32;;
836;SDS011;400;53.550;9.932;2023-02-13T05:56:30;10.65;;;9.55;;
836;SDS011;400;53.550;9.932;2023-02-13T05:58:56;13.55;;;10.23;;
836;SDS011;400;53.550;9.932;2023-02-13T06:01:25;11.13;;;9.10;;
836;SDS011;400;53.550;9.932;2023-02-13T06:03:52;12.10;;;10.90;;
836;SDS011;400;53.550;9.932;2023-02-13T06:06:20;11.48;;;10.20;;
836;SDS011;400;53.550;9.932;2023-02-13T06:08:49;13.40;;;11.75;;
836;SDS011;400;53.550;9.932;2023-02-13T06:11:18;12.95;;;9.85;;
836;SDS011;400;53.550;9.932;2023-02-13T06:13:46;12.60;;;10.50;;
836;SDS011;400;53.550;9.932;2023-02-13T06:16:17;14.38;;;12.55;;
836;SDS011;400;53.550;9.932;2023-02-13T06:18:48;13.50;;;10.80;;
836;SDS011;400;53.550;9.932;2023-02-13T06:21:15;12.30;;;11.10;;
836;SDS011;400;53.550;9.932;2023-02-13T06:23:47;16.13;;;12.30;;
836;SDS011;400;53.550;9.932;2023-02-13T06:26:16;13.82;;;12.38;;
836;SDS011;400;53.550;9.932;2023-02-13T06:28:43;12.40;;;10.95;;
836;SDS011;400;53.550;9.932;2023-02-13T06:31:10;13.48;;;11.93;;
836;SDS011;400;53.550;9.932;2023-02-13T06:33:40;16.17;;;14.30;;
836;SDS011;400;53.550;9.932;2023-02-13T06:36:07;14.48;;;12.65;;
836;SDS011;400;53.550;9.932;2023-02-13T06:38:35;14.60;;;12.85;;
836;SDS011;400;53.550;9.932;2023-02-13T06:41:16;14.77;;;13.27;;
836;SDS011;400;53.550;9.932;2023-02-13T06:43:46;15.35;;;12.27;;
836;SDS011;400;53.550;9.932;2023-02-13T06:46:17;15.60;;;12.93;;
836;SDS011;400;53.550;9.932;2023-02-13T06:48:48;16.90;;;14.07;;
836;SDS011;400;53.550;9.932;2023-02-13T06:51:21;16.25;;;12.70;;
836;SDS011;400;53.550;9.932;2023-02-13T06:53:53;16.92;;;14.80;;
836;SDS011;400;53.550;9.932;2023-02-13T06:56:24;15.70;;;14.05;;
836;SDS011;400;53.550;9.932;2023-02-13T06:58:52;14.60;;;12.85;;
836;SDS011;400;53.550;9.932;2023-02-13T07:01:19;18.27;;;13.45;;
836;SDS011;400;53.550;9.932;2023-02-13T07:03:46;20.38;;;13.65;;
836;SDS011;400;53.550;9.932;2023-02-13T07:06:16;18.92;;;14.38;;
836;SDS011;400;53.550;9.932;2023-02-13T07:08:43;14.43;;;12.57;;
836;SDS011;400;53.550;9.932;2023-02-13T07:11:15;16.02;;;13.05;;
836;SDS011;400;53.550;9.932;2023-02-13T07:13:44;17.88;;;13.73;;
836;SDS011;400;53.550;9.932;2023-02-13T07:16:11;16.42;;;13.27;;
836;SDS011;400;53.550;9.932;2023-02-13T07:18:38;16.30;;;14.15;;
836;SDS011;400;53.550;9.932;2023-02-13T07:21:05;19.52;;;14.45;;
836;SDS011;400;53.550;9.932;2023-02-13T07:23:32;17.30;;;14.25;;
836;SDS011;400;53.550;9.932;2023-02-13T07:25:59;17.42;;;13.85;;
836;SDS011;400;53.550;9.932;2023-02-13T07:28:27;16.88;;;14.65;;
836;SDS011;400;53.550;9.932;2023-02-13T07:30:56;21.00;;;14.80;;
836;SDS011;400;53.550;9.932;2023-02-13T07:33:24;22.08;;;16.30;;
836;SDS011;400;53.550;9.932;2023-02-13T07:35:53;16.45;;;13.75;;
836;SDS011;400;53.550;9.932;2023-02-13T07:38:21;22.00;;;15.25;;
836;SDS011;400;53.550;9.932;2023-02-13T07:40:52;16.83;;;14.55;;
836;SDS011;400;53.550;9.932;2023-02-13T07:43:23;21.35;;;14.30;;
836;SDS011;400;53.550;9.932;2023-02-13T07:45:50;16.10;;;14.40;;
836;SDS011;400;53.550;9.932;2023-02-13T07:48:20;20.08;;;14.55;;
836;SDS011;400;53.550;9.932;2023-02-13T07:50:47;16.15;;;13.50;;
836;SDS011;400;53.550;9.932;2023-02-13T07:53:16;26.42;;;16.60;;
836;SDS011;400;53.550;9.932;2023-02-13T07:55:45;19.80;;;15.13;;
836;SDS011;400;53.550;9.932;2023-02-13T07:58:14;17.42;;;14.05;;
836;SDS011;400;53.550;9.932;2023-02-13T08:00:45;17.38;;;15.10;;
836;SDS011;400;53.550;9.932;2023-02-13T08:03:15;20.13;;;16.42;;
836;SDS011;400;53.550;9.932;2023-02-13T08:05:44;17.17;;;14.63;;
836;SDS011;400;53.550;9.932;2023-02-13T08:08:13;18.27;;;15.10;;
836;SDS011;400;53.550;9.932;2023-02-13T08:10:40;18.77;;;14.32;;
836;SDS011;400;53.550;9.932;2023-02-13T08:13:25;16.60;;;14.27;;
836;SDS011;400;53.550;9.932;2023-02-13T08:15:53;18.35;;;15.07;;
836;SDS011;400;53.550;9.932;2023-02-13T08:18:22;19.42;;;15.40;;
836;SDS011;400;53.550;9.932;2023-02-13T08:20:50;17.10;;;14.60;;
836;SDS011;400;53.550;9.932;2023-02-13T08:23:22;21.33;;;17.67;;
836;SDS011;400;53.550;9.932;2023-02-13T08:25:52;18.30;;;13.60;;
836;SDS011;400;53.550;9.932;2023-02-13T08:28:21;17.25;;;14.90;;
836;SDS011;400;53.550;9.932;2023-02-13T08:30:48;16.33;;;14.30;;
836;SDS011;400;53.550;9.932;2023-02-13T08:33:16;23.15;;;14.43;;
836;SDS011;400;53.550;9.932;2023-02-13T08:35:46;16.63;;;14.30;;
836;SDS011;400;53.550;9.932;2023-02-13T08:38:18;20.95;;;15.30;;
836;SDS011;400;53.550;9.932;2023-02-13T08:40:55;18.90;;;16.45;;
836;SDS011;400;53.550;9.932;2023-02-13T08:43:22;16.08;;;13.10;;
836;SDS011;400;53.550;9.932;2023-02-13T08:45:50;15.18;;;13.57;;
836;SDS011;400;53.550;9.932;2023-02-13T08:48:17;15.95;;;14.00;;
836;SDS011;400;53.550;9.932;2023-02-13T08:50:45;15.52;;;13.40;;
836;SDS011;400;53.550;9.932;2023-02-13T08:53:12;17.90;;;14.18;;
836;SDS011;400;53.550;9.932;2023-02-13T08:55:48;16.48;;;13.40;;
836;SDS011;400;53.550;9.932;2023-02-13T08:58:23;16.15;;;12.82;;
836;SDS011;400;53.550;9.932;2023-02-13T09:00:53;22.23;;;14.48;;
836;SDS011;400;53.550;9.932;2023-02-13T09:03:21;16.33;;;14.43;;
836;SDS011;400;53.550;9.932;2023-02-13T09:05:53;38.92;;;27.80;;
836;SDS011;400;53.550;9.932;2023-02-13T09:08:25;41.17;;;32.17;;
836;SDS011;400;53.550;9.932;2023-02-13T09:10:59;15.63;;;13.93;;
836;SDS011;400;53.550;9.932;2023-02-13T09:13:28;14.38;;;12.70;;
836;SDS011;400;53.550;9.932;2023-02-13T09:15:58;19.95;;;13.57;;
836;SDS011;400;53.550;9.932;2023-02-13T09:18:28;16.05;;;13.25;;
836;SDS011;400;53.550;9.932;2023-02-13T09:20:57;15.90;;;13.10;;
836;SDS011;400;53.550;9.932;2023-02-13T09:23:25;16.65;;;13.10;;
836;SDS011;400;53.550;9.932;2023-02-13T09:25:52;18.90;;;14.05;;
836;SDS011;400;53.550;9.932;2023-02-13T09:28:21;14.60;;;12.52;;
836;SDS011;400;53.550;9.932;2023-02-13T09:30:47;13.90;;;12.45;;
836;SDS011;400;53.550;9.932;2023-02-13T09:33:14;12.80;;;10.73;;
836;SDS011;400;53.550;9.932;2023-02-13T09:35:41;14.63;;;11.70;;
836;SDS011;400;53.550;9.932;2023-02-13T09:38:08;14.75;;;12.05;;
836;SDS011;400;53.550;9.932;2023-02-13T09:40:36;14.18;;;12.70;;
836;SDS011;400;53.550;9.932;2023-02-13T09:43:12;16.50;;;13.45;;
836;SDS011;400;53.550;9.932;2023-02-13T09:45:44;15.35;;;13.43;;
836;SDS011;400;53.550;9.932;2023-02-13T09:48:16;16.85;;;14.70;;
836;SDS011;400;53.550;9.932;2023-02-13T09:50:53;13.15;;;11.63;;
836;SDS011;400;53.550;9.932;2023-02-13T09:53:21;13.00;;;11.57;;
836;SDS011;400;53.550;9.932;2023-02-13T09:55:53;16.33;;;11.57;;
836;SDS011;400;53.550;9.932;2023-02-13T10:01:16;16.27;;;12.80;;
836;SDS011;400;53.550;9.932;2023-02-13T10:03:55;14.45;;;12.27;;
836;SDS011;400;53.550;9.932;2023-02-13T10:06:38;17.08;;;12.63;;
836;SDS011;400;53.550;9.932;2023-02-13T10:09:16;14.82;;;11.88;;
836;SDS011;400;53.550;9.932;2023-02-13T10:14:50;21.70;;;13.40;;
836;SDS011;400;53.550;9.932;2023-02-13T10:17:30;18.45;;;13.93;;
836;SDS011;400;53.550;9.932;2023-02-13T10:20:00;17.70;;;13.65;;
836;SDS011;400;53.550;9.932;2023-02-13T10:22:32;22.70;;;19.60;;
836;SDS011;400;53.550;9.932;2023-02-13T10:25:04;18.23;;;16.10;;
836;SDS011;400;53.550;9.932;2023-02-13T10:27:37;16.83;;;14.45;;
836;SDS011;400;53.550;9.932;2023-02-13T10:30:13;17.73;;;15.20;;
836;SDS011;400;53.550;9.932;2023-02-13T10:32:46;19.00;;;15.55;;
836;SDS011;400;53.550;9.932;2023-02-13T10:35:35;15.85;;;12.95;;
836;SDS011;400;53.550;9.932;2023-02-13T10:38:03;17.58;;;14.90;;
836;SDS011;400;53.550;9.932;2023-02-13T10:40:42;18.60;;;14.63;;
836;SDS011;400;53.550;9.932;2023-02-13T10:43:29;16.52;;;14.32;;
836;SDS011;400;53.550;9.932;2023-02-13T10:46:08;15.13;;;13.63;;
836;SDS011;400;53.550;9.932;2023-02-13T10:51:55;14.73;;;13.13;;
836;SDS011;400;53.550;9.932;2023-02-13T10:54:37;19.77;;;13.20;;
836;SDS011;400;53.550;9.932;2023-02-13T10:57:26;15.95;;;13.70;;
836;SDS011;400;53.550;9.932;2023-02-13T11:00:04;15.98;;;14.20;;
836;SDS011;400;53.550;9.932;2023-02-13T11:02:39;18.20;;;14.38;;
836;SDS011;400;53.550;9.932;2023-02-13T11:05:13;17.02;;;13.75;;
836;SDS011;400;53.550;9.932;2023-02-13T11:07:45;15.13;;;13.35;;
836;SDS011;400;53.550;9.932;2023-02-13T11:10:15;14.05;;;12.40;;
836;SDS011;400;53.550;9.932;2023-02-13T11:12:47;14.50;;;13.05;;
836;SDS011;400;53.550;9.932;2023-02-13T11:15:22;14.63;;;12.88;;
836;SDS011;400;53.550;9.932;2023-02-13T11:17:54;44.33;;;37.38;;
836;SDS011;400;53.550;9.932;2023-02-13T11:20:34;17.42;;;14.13;;
836;SDS011;400;53.550;9.932;2023-02-13T11:26:02;17.73;;;13.95;;
836;SDS011;400;53.550;9.932;2023-02-13T11:28:33;17.30;;;13.00;;
836;SDS011;400;53.550;9.932;2023-02-13T11:31:11;16.80;;;13.95;;
836;SDS011;400;53.550;9.932;2023-02-13T11:33:41;14.23;;;12.70;;
836;SDS011;400;53.550;9.932;2023-02-13T11:36:21;17.33;;;14.68;;
836;SDS011;400;53.550;9.932;2023-02-13T11:38:57;17.42;;;14.00;;
836;SDS011;400;53.550;9.932;2023-02-13T11:41:46;17.27;;;14.32;;
836;SDS011;400;53.550;9.932;2023-02-13T11:44:18;16.90;;;14.30;;
836;SDS011;400;53.550;9.932;2023-02-13T11:46:51;17.10;;;14.65;;
836;SDS011;400;53.550;9.932;2023-02-13T11:49:23;17.25;;;14.52;;
836;SDS011;400;53.550;9.932;2023-02-13T11:52:00;21.60;;;15.43;;
836;SDS011;400;53.550;9.932;2023-02-13T11:54:33;18.42;;;16.15;;
836;SDS011;400;53.550;9.932;2023-02-13T11:57:16;18.60;;;15.80;;
836;SDS011;400;53.550;9.932;2023-02-13T11:59:46;16.30;;;14.43;;
836;SDS011;400;53.550;9.932;2023-02-13T12:02:15;19.73;;;15.32;;
836;SDS011;400;53.550;9.932;2023-02-13T12:04:46;20.95;;;15.82;;
836;SDS011;400;53.550;9.932;2023-02-13T12:07:20;19.37;;;14.37;;
836;SDS011;400;53.550;9.932;2023-02-13T12:09:52;16.90;;;14.23;;
836;SDS011;400;53.550;9.932;2023-02-13T12:12:29;21.60;;;15.60;;
836;SDS011;400;53.550;9.932;2023-02-13T12:15:06;17.65;;;14.98;;
836;SDS011;400;53.550;9.932;2023-02-13T12:17:43;20.27;;;14.55;;
836;SDS011;400;53.550;9.932;2023-02-13T12:20:17;17.60;;;14.80;;
836;SDS011;400;53.550;9.932;2023-02-13T12:23:00;21.00;;;15.25;;
836;SDS011;400;53.550;9.932;2023-02-13T12:28:29;18.50;;;14.15;;
836;SDS011;400;53.550;9.932;2023-02-13T12:31:13;15.90;;;13.75;;
836;SDS011;400;53.550;9.932;2023-02-13T12:37:14;18.37;;;15.70;;
836;SDS011;400;53.550;9.932;2023-02-13T12:40:13;19.38;;;16.63;;
836;SDS011;400;53.550;9.932;2023-02-13T12:43:25;18.25;;;15.38;;
836;SDS011;400;53.550;9.932;2023-02-13T12:46:11;20.70;;;16.43;;
836;SDS011;400;53.550;9.932;2023-02-13T12:48:52;17.03;;;14.40;;
836;SDS011;400;53.550;9.932;2023-02-13T12:51:31;18.75;;;16.20;;
836;SDS011;400;53.550;9.932;2023-02-13T12:54:24;21.10;;;16.05;;
836;SDS011;400;53.550;9.932;2023-02-13T12:57:12;22.00;;;15.27;;
836;SDS011;400;53.550;9.932;2023-02-13T12:59:50;16.60;;;14.85;;
836;SDS011;400;53.550;9.932;2023-02-13T13:02:46;18.13;;;15.60;;
836;SDS011;400;53.550;9.932;2023-02-13T13:05:31;19.88;;;15.65;;
836;SDS011;400;53.550;9.932;2023-02-13T13:08:31;18.20;;;15.07;;
836;SDS011;400;53.550;9.932;2023-02-13T13:11:19;17.63;;;15.23;;
836;SDS011;400;53.550;9.932;2023-02-13T13:14:05;20.10;;;16.20;;
836;SDS011;400;53.550;9.932;2023-02-13T13:16:40;19.47;;;15.60;;
836;SDS011;400;53.550;9.932;2023-02-13T13:21:47;18.63;;;14.65;;
836;SDS011;400;53.550;9.932;2023-02-13T13:24:22;18.10;;;14.40;;
836;SDS011;400;53.550;9.932;2023-02-13T13:27:03;16.75;;;14.13;;
836;SDS011;400;53.550;9.932;2023-02-13T13:29:39;18.60;;;15.63;;
836;SDS011;400;53.550;9.932;2023-02-13T13:32:12;17.17;;;14.40;;
836;SDS011;400;53.550;9.932;2023-02-13T13:34:43;23.87;;;16.37;;
836;SDS011;400;53.550;9.932;2023-02-13T13:37:16;19.40;;;16.03;;
836;SDS011;400;53.550;9.932;2023-02-13T13:39:54;21.07;;;15.17;;
836;SDS011;400;53.550;9.932;2023-02-13T13:42:31;18.63;;;15.38;;
836;SDS011;400;53.550;9.932;2023-02-13T13:45:07;21.58;;;16.42;;
836;SDS011;400;53.550;9.932;2023-02-13T13:47:51;17.50;;;14.70;;
836;SDS011;400;53.550;9.932;2023-02-13T13:50:40;17.98;;;13.93;;
836;SDS011;400;53.550;9.932;2023-02-13T13:53:11;18.33;;;15.45;;
836;SDS011;400;53.550;9.932;2023-02-13T13:58:45;19.65;;;15.70;;
836;SDS011;400;53.550;9.932;2023-02-13T14:01:28;21.75;;;16.67;;
836;SDS011;400;53.550;9.932;2023-02-13T14:04:00;19.05;;;16.60;;
836;SDS011;400;53.550;9.932;2023-02-13T14:09:42;20.92;;;16.42;;
836;SDS011;400;53.550;9.932;2023-02-13T14:18:20;22.73;;;17.07;;
836;SDS011;400;53.550;9.932;2023-02-13T14:20:50;24.70;;;18.85;;
836;SDS011;400;53.550;9.932;2023-02-13T14:26:19;21.17;;;17.42;;
836;SDS011;400;53.550;9.932;2023-02-13T14:32:04;21.67;;;17.60;;
836;SDS011;400;53.550;9.932;2023-02-13T14:34:42;21.02;;;17.67;;
836;SDS011;400;53.550;9.932;2023-02-13T14:37:20;21.33;;;17.67;;
836;SDS011;400;53.550;9.932;2023-02-13T14:42:58;20.20;;;16.70;;
836;SDS011;400;53.550;9.932;2023-02-13T14:45:33;20.88;;;17.33;;
836;SDS011;400;53.550;9.932;2023-02-13T14:48:11;21.90;;;18.10;;
836;SDS011;400;53.550;9.932;2023-02-13T14:50:45;21.80;;;16.90;;
836;SDS011;400;53.550;9.932;2023-02-13T14:53:23;26.73;;;19.83;;
836;SDS011;400;53.550;9.932;2023-02-13T14:55:56;25.27;;;18.27;;
836;SDS011;400;53.550;9.932;2023-02-13T14:58:32;24.27;;;18.97;;
836;SDS011;400;53.550;9.932;2023-02-13T15:01:14;22.38;;;16.05;;
836;SDS011;400;53.550;9.932;2023-02-13T15:03:51;23.20;;;18.50;;
836;SDS011;400;53.550;9.932;2023-02-13T15:06:26;22.27;;;17.20;;
836;SDS011;400;53.550;9.932;2023-02-13T15:09:02;23.30;;;17.27;;
836;SDS011;400;53.550;9.932;2023-02-13T15:11:37;27.08;;;19.38;;
836;SDS011;400;53.550;9.932;2023-02-13T15:14:22;25.27;;;17.98;;
836;SDS011;400;53.550;9.932;2023-02-13T15:17:05;20.90;;;16.73;;
836;SDS011;400;53.550;9.932;2023-02-13T15:19:44;22.27;;;17.52;;
836;SDS011;400;53.550;9.932;2023-02-13T15:22:19;23.17;;;17.60;;
836;SDS011;400;53.550;9.932;2023-02-13T15:24:55;20.08;;;14.93;;
836;SDS011;400;53.550;9.932;2023-02-13T15:27:28;24.00;;;18.10;;
836;SDS011;400;53.550;9.932;2023-02-13T15:30:16;25.77;;;18.52;;
836;SDS011;400;53.550;9.932;2023-02-13T15:32:52;22.48;;;17.67;;
836;SDS011;400;53.550;9.932;2023-02-13T15:35:21;27.08;;;17.92;;
836;SDS011;400;53.550;9.932;2023-02-13T15:37:51;23.52;;;16.90;;
836;SDS011;400;53.550;9.932;2023-02-13T15:40:23;21.70;;;18.17;;
836;SDS011;400;53.550;9.932;2023-02-13T15:42:52;21.48;;;16.20;;
836;SDS011;400;53.550;9.932;2023-02-13T15:45:21;22.98;;;18.10;;
836;SDS011;400;53.550;9.932;2023-02-13T15:47:51;22.70;;;17.23;;
836;SDS011;400;53.550;9.932;2023-02-13T15:50:26;23.50;;;17.45;;
836;SDS011;400;53.550;9.932;2023-02-13T15:52:58;22.73;;;16.83;;
836;SDS011;400;53.550;9.932;2023-02-13T15:55:29;23.17;;;17.98;;
836;SDS011;400;53.550;9.932;2023-02-13T15:58:05;22.67;;;18.08;;
836;SDS011;400;53.550;9.932;2023-02-13T16:00:38;23.27;;;17.67;;
836;SDS011;400;53.550;9.932;2023-02-13T16:03:12;23.15;;;16.73;;
836;SDS011;400;53.550;9.932;2023-02-13T16:05:44;22.17;;;17.15;;
836;SDS011;400;53.550;9.932;2023-02-13T16:08:31;23.85;;;16.75;;
836;SDS011;400;53.550;9.932;2023-02-13T16:14:10;22.55;;;17.00;;
836;SDS011;400;53.550;9.932;2023-02-13T16:16:47;23.33;;;16.08;;
836;SDS011;400;53.550;9.932;2023-02-13T16:19:24;20.83;;;16.98;;
836;SDS011;400;53.550;9.932;2023-02-13T16:22:13;22.52;;;16.63;;
836;SDS011;400;53.550;9.932;2023-02-13T16:25:10;23.67;;;16.65;;
836;SDS011;400;53.550;9.932;2023-02-13T16:27:44;22.33;;;17.13;;
836;SDS011;400;53.550;9.932;2023-02-13T16:33:09;22.98;;;17.38;;
836;SDS011;400;53.550;9.932;2023-02-13T16:35:44;21.75;;;17.38;;
836;SDS011;400;53.550;9.932;2023-02-13T16:38:28;20.17;;;16.95;;
836;SDS011;400;53.550;9.932;2023-02-13T16:41:27;22.77;;;16.60;;
836;SDS011;400;53.550;9.932;2023-02-13T16:44:00;21.48;;;18.17;;
836;SDS011;400;53.550;9.932;2023-02-13T16:46:38;24.00;;;17.00;;
836;SDS011;400;53.550;9.932;2023-02-13T16:49:13;21.58;;;16.70;;